createdAt,value
2022-08-19T00:01:59.429Z,23.20
2022-08-19T00:04:36.063Z,23.20
2022-08-19T00:07:06.694Z,23.20
2022-08-19T00:09:35.018Z,23.10
2022-08-19T00:12:03.010Z,23.00
2022-08-19T00:14:32.973Z,23.00
2022-08-19T00:17:02.201Z,22.90
2022-08-19T00:19:30.365Z,22.80
2022-08-19T00:21:58.520Z,22.80
2022-08-19T00:24:29.943Z,22.80
2022-08-19T00:26:58.391Z,22.70
2022-08-19T00:29:46.462Z,22.70
2022-08-19T00:32:21.023Z,22.60
2022-08-19T00:34:49.233Z,22.60
2022-08-19T00:37:17.045Z,22.60
2022-08-19T00:39:45.020Z,22.50
2022-08-19T00:42:17.319Z,22.50
2022-08-19T00:44:45.229Z,22.50
2022-08-19T00:47:14.265Z,22.40
2022-08-19T00:49:51.798Z,22.50
2022-08-19T00:52:33.315Z,22.40
2022-08-19T00:55:02.626Z,22.40
2022-08-19T00:57:37.132Z,22.50
2022-08-19T01:00:12.620Z,22.40
2022-08-19T01:02:41.888Z,22.40
2022-08-19T01:05:16.520Z,22.40
2022-08-19T01:07:44.798Z,22.50
2022-08-19T01:10:17.515Z,22.50
2022-08-19T01:12:45.770Z,22.50
2022-08-19T01:15:17.070Z,22.50
2022-08-19T01:17:45.764Z,22.60
2022-08-19T01:20:18.362Z,22.60
2022-08-19T01:22:50.441Z,22.60
2022-08-19T01:25:27.838Z,22.60
2022-08-19T01:27:59.076Z,22.60
2022-08-19T01:30:36.905Z,22.60
2022-08-19T01:33:06.902Z,22.60
2022-08-19T01:35:37.052Z,22.60
2022-08-19T01:38:09.313Z,22.60
2022-08-19T01:40:41.183Z,22.50
2022-08-19T01:43:09.094Z,22.50
2022-08-19T01:45:38.756Z,22.40
2022-08-19T01:48:07.462Z,22.40
2022-08-19T01:50:36.549Z,22.30
2022-08-19T01:53:07.963Z,22.30
2022-08-19T01:55:40.623Z,22.30
2022-08-19T01:58:17.994Z,22.30
2022-08-19T02:00:46.952Z,22.20
2022-08-19T02:03:15.745Z,22.20
2022-08-19T02:05:45.058Z,22.20
2022-08-19T02:08:13.901Z,22.20
2022-08-19T02:10:43.570Z,22.20
2022-08-19T02:13:17.826Z,22.20
2022-08-19T02:15:54.424Z,22.20
2022-08-19T02:18:22.601Z,22.20
2022-08-19T02:20:56.443Z,22.20
2022-08-19T02:23:24.640Z,22.20
2022-08-19T02:25:53.531Z,22.20
2022-08-19T02:28:21.374Z,22.20
2022-08-19T02:30:49.827Z,22.20
2022-08-19T02:33:18.275Z,22.20
2022-08-19T02:35:48.008Z,22.20
2022-08-19T02:38:28.464Z,22.20
2022-08-19T02:40:59.714Z,22.20
2022-08-19T02:43:33.823Z,22.20
2022-08-19T02:46:03.950Z,22.10
2022-08-19T02:48:34.109Z,22.20
2022-08-19T02:51:02.134Z,22.20
2022-08-19T02:53:30.436Z,22.20
2022-08-19T02:55:58.996Z,22.10
2022-08-19T02:58:27.981Z,22.20
2022-08-19T03:00:57.681Z,22.20
2022-08-19T03:03:25.947Z,22.20
2022-08-19T03:06:08.170Z,22.20
2022-08-19T03:08:36.750Z,22.20
2022-08-19T03:11:05.036Z,22.10
2022-08-19T03:13:33.931Z,22.20
2022-08-19T03:16:06.657Z,22.20
2022-08-19T03:18:34.420Z,22.20
2022-08-19T03:21:03.748Z,22.20
2022-08-19T03:23:31.597Z,22.20
2022-08-19T03:26:15.895Z,22.20
2022-08-19T03:28:51.138Z,22.20
2022-08-19T03:31:44.495Z,22.20
2022-08-19T03:34:19.427Z,22.20
2022-08-19T03:36:48.000Z,22.20
2022-08-19T03:39:17.000Z,22.20
2022-08-19T03:41:48.268Z,22.20
2022-08-19T03:44:20.865Z,22.20
2022-08-19T03:46:52.833Z,22.20
2022-08-19T03:49:28.305Z,22.20
2022-08-19T03:51:58.870Z,22.20
2022-08-19T03:54:27.851Z,22.20
2022-08-19T03:56:57.264Z,22.10
2022-08-19T03:59:33.186Z,22.10
2022-08-19T04:02:20.597Z,22.10
2022-08-19T04:04:48.536Z,22.10
2022-08-19T04:07:17.349Z,22.20
2022-08-19T04:09:45.652Z,22.20
2022-08-19T04:12:13.583Z,22.30
2022-08-19T04:14:42.568Z,22.30
2022-08-19T04:17:10.488Z,22.40
2022-08-19T04:19:38.425Z,22.40
2022-08-19T04:22:08.006Z,22.50
2022-08-19T04:24:36.692Z,22.60
2022-08-19T04:27:06.669Z,22.60
2022-08-19T04:29:35.008Z,22.70
2022-08-19T04:32:08.626Z,22.70
2022-08-19T04:35:15.805Z,22.80
2022-08-19T04:37:35.332Z,22.90
2022-08-19T04:40:26.502Z,23.00
2022-08-19T04:42:55.362Z,23.00
2022-08-19T04:45:23.784Z,23.10
2022-08-19T04:47:58.819Z,23.10
2022-08-19T04:50:46.545Z,23.20
2022-08-19T04:53:14.408Z,23.20
2022-08-19T04:55:43.705Z,23.20
2022-08-19T04:58:11.933Z,23.20
2022-08-19T05:00:41.185Z,23.30
2022-08-19T05:03:09.721Z,23.30
2022-08-19T05:05:44.973Z,23.40
2022-08-19T05:08:15.417Z,23.40
2022-08-19T05:10:44.490Z,23.50
2022-08-19T05:13:12.496Z,23.50
2022-08-19T05:15:40.643Z,23.60
2022-08-19T05:18:27.161Z,23.60
2022-08-19T05:21:13.849Z,23.70
2022-08-19T05:23:45.899Z,23.70
2022-08-19T05:26:17.391Z,23.70
2022-08-19T05:28:46.023Z,23.80
2022-08-19T05:31:14.263Z,23.80
2022-08-19T05:33:42.138Z,23.90
2022-08-19T05:36:10.827Z,24.00
2022-08-19T05:38:39.100Z,24.10
2022-08-19T05:41:15.265Z,24.10
2022-08-19T05:43:43.435Z,24.10
2022-08-19T05:46:19.921Z,24.20
2022-08-19T05:48:57.712Z,24.40
2022-08-19T05:51:29.203Z,24.50
2022-08-19T05:53:57.583Z,24.60
2022-08-19T05:56:26.209Z,24.70
2022-08-19T05:58:55.381Z,24.80
2022-08-19T06:01:27.734Z,24.90
2022-08-19T06:03:55.640Z,24.90
2022-08-19T06:06:23.517Z,24.90
2022-08-19T06:08:52.108Z,25.00
2022-08-19T06:11:44.790Z,25.00
2022-08-19T06:14:16.963Z,25.10
2022-08-19T06:16:45.917Z,25.20
2022-08-19T06:19:17.182Z,25.20
2022-08-19T06:21:47.817Z,25.20
2022-08-19T06:24:18.520Z,25.30
2022-08-19T06:29:37.340Z,25.40
2022-08-19T06:32:05.712Z,25.40
2022-08-19T06:34:35.488Z,25.40
2022-08-19T06:37:04.181Z,25.50
2022-08-19T06:39:35.153Z,25.50
2022-08-19T06:42:07.424Z,25.60
2022-08-19T06:44:43.040Z,25.70
2022-08-19T06:47:23.091Z,25.70
2022-08-19T06:50:05.413Z,25.80
2022-08-19T06:52:38.377Z,25.80
2022-08-19T06:55:07.633Z,25.90
2022-08-19T06:57:36.215Z,25.90
2022-08-19T07:00:07.913Z,25.90
2022-08-19T07:02:39.322Z,25.90
2022-08-19T07:05:08.637Z,25.90
2022-08-19T07:07:39.090Z,26.00
2022-08-19T07:10:11.251Z,26.00
2022-08-19T07:12:42.059Z,26.10
2022-08-19T07:15:11.088Z,26.10
2022-08-19T07:17:42.109Z,26.10
2022-08-19T07:20:11.900Z,26.20
2022-08-19T07:22:41.147Z,26.30
2022-08-19T07:25:10.764Z,26.40
2022-08-19T07:27:39.805Z,26.60
2022-08-19T07:30:11.739Z,26.70
2022-08-19T07:32:41.654Z,26.70
2022-08-19T07:35:10.691Z,26.80
2022-08-19T07:37:39.528Z,26.90
2022-08-19T07:40:09.040Z,26.90
2022-08-19T07:42:37.013Z,26.90
2022-08-19T07:45:06.538Z,27.00
2022-08-19T07:47:50.120Z,27.00
2022-08-19T07:50:21.925Z,27.20
2022-08-19T07:52:51.075Z,27.20
2022-08-19T07:55:42.204Z,27.30
2022-08-19T07:58:13.947Z,27.30
2022-08-19T08:00:43.488Z,27.20
2022-08-19T08:03:12.147Z,27.30
2022-08-19T08:05:58.647Z,27.30
2022-08-19T08:08:48.270Z,27.30
2022-08-19T08:11:24.103Z,27.30
2022-08-19T08:14:01.433Z,27.30
2022-08-19T08:16:39.296Z,27.40
2022-08-19T08:19:18.217Z,27.50
2022-08-19T08:21:56.719Z,27.50
2022-08-19T08:24:28.280Z,27.60
2022-08-19T08:26:58.029Z,27.70
2022-08-19T08:29:27.201Z,27.80
2022-08-19T08:32:14.241Z,27.80
2022-08-19T08:34:43.865Z,27.80
2022-08-19T08:37:12.014Z,27.90
2022-08-19T08:39:40.047Z,27.90
2022-08-19T08:42:18.725Z,28.00
2022-08-19T08:47:42.440Z,28.10
2022-08-19T08:50:15.808Z,28.20
2022-08-19T08:52:49.559Z,28.20
2022-08-19T08:55:25.656Z,28.30
2022-08-19T08:58:07.131Z,28.30
2022-08-19T09:00:42.100Z,28.40
2022-08-19T09:03:25.650Z,28.40
2022-08-19T09:06:11.887Z,28.50
2022-08-19T09:08:44.129Z,28.60
2022-08-19T09:11:44.449Z,28.70
2022-08-19T09:14:50.183Z,28.70
2022-08-19T09:17:31.996Z,28.80
2022-08-19T09:20:10.645Z,28.90
2022-08-19T09:22:40.697Z,29.10
2022-08-19T09:25:10.762Z,29.20
2022-08-19T09:27:43.798Z,29.30
2022-08-19T09:30:19.526Z,29.40
2022-08-19T09:32:52.744Z,29.50
2022-08-19T09:35:26.477Z,29.50
2022-08-19T09:37:59.826Z,29.70
2022-08-19T09:40:30.930Z,29.70
2022-08-19T09:43:10.059Z,29.70
2022-08-19T09:45:41.908Z,29.80
2022-08-19T09:48:11.844Z,29.90
2022-08-19T09:50:51.894Z,29.90
2022-08-19T09:53:25.251Z,29.90
2022-08-19T09:55:56.797Z,29.90
2022-08-19T09:58:28.795Z,30.00
2022-08-19T10:00:58.545Z,30.10
2022-08-19T10:03:30.279Z,30.30
2022-08-19T10:06:01.365Z,30.30
2022-08-19T10:08:35.964Z,30.40
2022-08-19T10:11:28.709Z,30.40
2022-08-19T10:13:53.491Z,30.50
2022-08-19T10:16:29.189Z,30.50
2022-08-19T10:18:59.121Z,30.60
2022-08-19T10:21:32.140Z,30.70
2022-08-19T10:24:04.976Z,30.60
2022-08-19T10:26:38.193Z,30.70
2022-08-19T10:29:09.477Z,30.70
2022-08-19T10:32:02.298Z,30.70
2022-08-19T10:34:28.351Z,30.80
2022-08-19T10:37:00.590Z,30.80
2022-08-19T10:39:32.599Z,30.70
2022-08-19T10:42:12.915Z,30.60
2022-08-19T10:44:41.102Z,30.70
2022-08-19T10:47:21.841Z,30.80
2022-08-19T10:50:13.261Z,30.90
2022-08-19T10:52:50.028Z,31.00
2022-08-19T10:55:41.477Z,31.10
2022-08-19T10:58:15.181Z,31.20
2022-08-19T11:00:46.873Z,31.10
2022-08-19T11:03:14.991Z,31.10
2022-08-19T11:05:43.187Z,31.20
2022-08-19T11:08:23.061Z,31.30
2022-08-19T11:11:00.397Z,31.30
2022-08-19T11:13:38.013Z,31.30
2022-08-19T11:16:09.447Z,31.30
2022-08-19T11:18:39.699Z,31.30
2022-08-19T11:21:22.271Z,31.40
2022-08-19T11:23:56.692Z,31.40
2022-08-19T11:26:25.492Z,31.50
2022-08-19T11:28:55.747Z,31.50
2022-08-19T11:31:28.990Z,31.60
2022-08-19T11:34:02.770Z,31.60
2022-08-19T11:36:32.359Z,31.50
2022-08-19T11:39:01.135Z,31.60
2022-08-19T11:41:29.511Z,31.60
2022-08-19T11:43:57.931Z,31.60
2022-08-19T11:46:30.731Z,31.60
2022-08-19T11:49:00.623Z,31.60
2022-08-19T11:51:29.679Z,31.60
2022-08-19T11:53:59.495Z,31.50
2022-08-19T11:56:29.157Z,31.50
2022-08-19T11:58:58.055Z,31.50
2022-08-19T12:01:27.542Z,31.50
2022-08-19T12:03:57.668Z,31.40
2022-08-19T12:06:30.307Z,31.40
2022-08-19T12:08:59.961Z,31.50
2022-08-19T12:11:41.874Z,31.50
2022-08-19T12:14:15.294Z,31.50
2022-08-19T12:16:51.608Z,31.50
2022-08-19T12:19:21.731Z,31.40
2022-08-19T12:21:51.648Z,31.30
2022-08-19T12:24:24.378Z,31.30
2022-08-19T12:26:53.871Z,31.30
2022-08-19T12:29:24.353Z,31.20
2022-08-19T12:31:52.778Z,31.20
2022-08-19T12:34:21.716Z,31.20
2022-08-19T12:36:50.987Z,31.20
2022-08-19T12:39:19.219Z,31.20
2022-08-19T12:41:51.478Z,31.20
2022-08-19T12:44:29.389Z,31.20
2022-08-19T12:47:00.725Z,31.20
2022-08-19T12:49:53.261Z,31.20
2022-08-19T12:52:23.107Z,31.20
2022-08-19T12:54:54.554Z,31.20
2022-08-19T12:57:32.621Z,31.10
2022-08-19T13:00:14.734Z,31.00
2022-08-19T13:02:45.716Z,30.90
2022-08-19T13:05:17.211Z,30.90
2022-08-19T13:07:45.294Z,30.80
2022-08-19T13:10:19.176Z,30.90
2022-08-19T13:12:50.218Z,30.90
2022-08-19T13:15:24.019Z,30.90
2022-08-19T13:17:54.375Z,30.80
2022-08-19T13:20:23.270Z,30.90
2022-08-19T13:22:51.328Z,30.90
2022-08-19T13:25:21.085Z,30.90
2022-08-19T13:27:50.585Z,31.00
2022-08-19T13:30:39.318Z,31.00
2022-08-19T13:33:17.920Z,31.00
2022-08-19T13:35:45.963Z,31.00
2022-08-19T13:38:15.342Z,31.00
2022-08-19T13:40:43.600Z,31.00
2022-08-19T13:43:17.766Z,31.00
2022-08-19T13:45:56.551Z,31.00
2022-08-19T13:48:27.658Z,30.90
2022-08-19T13:50:56.388Z,31.00
2022-08-19T13:53:24.763Z,31.00
2022-08-19T13:55:54.791Z,31.00
2022-08-19T13:58:25.675Z,31.00
2022-08-19T14:00:53.732Z,31.10
2022-08-19T14:03:21.768Z,31.10
2022-08-19T14:05:50.017Z,31.10
2022-08-19T14:08:18.340Z,31.10
2022-08-19T14:10:46.911Z,31.20
2022-08-19T14:13:17.626Z,31.10
2022-08-19T14:15:46.231Z,31.10
2022-08-19T14:18:14.651Z,31.10
2022-08-19T14:20:43.604Z,31.10
2022-08-19T14:23:13.504Z,31.10
2022-08-19T14:25:41.478Z,31.00
2022-08-19T14:28:10.024Z,31.00
2022-08-19T14:30:39.367Z,31.00
2022-08-19T14:33:08.405Z,31.00
2022-08-19T14:35:36.619Z,31.00
2022-08-19T14:38:06.321Z,31.00
2022-08-19T14:40:34.619Z,31.00
2022-08-19T14:43:06.323Z,31.00
2022-08-19T14:45:37.164Z,31.00
2022-08-19T14:48:12.567Z,31.00
2022-08-19T14:50:47.676Z,31.00
2022-08-19T14:53:18.073Z,31.00
2022-08-19T14:55:47.711Z,31.00
2022-08-19T14:58:28.333Z,31.00
2022-08-19T15:01:00.594Z,31.00
2022-08-19T15:03:29.892Z,30.90
2022-08-19T15:05:58.941Z,30.90
2022-08-19T15:08:28.598Z,30.90
2022-08-19T15:11:00.165Z,30.90
2022-08-19T15:13:30.618Z,30.90
2022-08-19T15:15:58.550Z,30.90
2022-08-19T15:18:26.577Z,30.80
2022-08-19T15:20:56.195Z,30.80
2022-08-19T15:23:24.747Z,30.70
2022-08-19T15:25:56.710Z,30.70
2022-08-19T15:28:26.891Z,30.70
2022-08-19T15:30:54.855Z,30.70
2022-08-19T15:33:22.844Z,30.60
2022-08-19T15:35:51.917Z,30.70
2022-08-19T15:38:22.491Z,30.60
2022-08-19T15:40:50.758Z,30.60
2022-08-19T15:43:22.418Z,30.60
2022-08-19T15:45:50.377Z,30.50
2022-08-19T15:48:18.236Z,30.50
2022-08-19T15:50:46.395Z,30.50
2022-08-19T15:53:14.252Z,30.50
2022-08-19T15:55:47.770Z,30.50
2022-08-19T15:58:34.479Z,30.50
2022-08-19T16:01:26.853Z,30.40
2022-08-19T16:04:15.592Z,30.40
2022-08-19T16:06:47.457Z,30.40
2022-08-19T16:09:17.022Z,30.40
2022-08-19T16:11:46.386Z,30.50
2022-08-19T16:14:16.703Z,30.50
2022-08-19T16:16:48.366Z,30.50
2022-08-19T16:19:18.281Z,30.50
2022-08-19T16:21:50.669Z,30.40
2022-08-19T16:24:20.792Z,30.40
2022-08-19T16:26:49.465Z,30.40
2022-08-19T16:29:33.244Z,30.30
2022-08-19T16:32:10.579Z,30.30
2022-08-19T16:34:40.666Z,30.30
2022-08-19T16:37:10.449Z,30.30
2022-08-19T16:39:43.752Z,30.20
2022-08-19T16:42:13.640Z,30.20
2022-08-19T16:44:46.088Z,30.10
2022-08-19T16:47:15.487Z,30.10
2022-08-19T16:49:54.103Z,30.10
2022-08-19T16:52:27.235Z,30.00
2022-08-19T16:54:55.354Z,30.00
2022-08-19T16:57:24.258Z,30.00
2022-08-19T17:00:13.186Z,29.90
2022-08-19T17:02:41.269Z,29.90
2022-08-19T17:05:10.371Z,29.80
2022-08-19T17:07:38.232Z,29.80
2022-08-19T17:10:07.109Z,29.80
2022-08-19T17:12:35.285Z,29.70
2022-08-19T17:15:04.526Z,29.70
2022-08-19T17:17:32.923Z,29.60
2022-08-19T17:20:03.008Z,29.60
2022-08-19T17:22:30.876Z,29.60
2022-08-19T17:24:59.065Z,29.50
2022-08-19T17:27:32.176Z,29.50
2022-08-19T17:30:03.996Z,29.40
2022-08-19T17:32:35.115Z,29.30
2022-08-19T17:35:04.985Z,29.30
2022-08-19T17:37:33.867Z,29.20
2022-08-19T17:40:11.904Z,29.10
2022-08-19T17:42:41.478Z,29.10
2022-08-19T17:45:11.615Z,29.00
2022-08-19T17:47:40.830Z,28.90
2022-08-19T17:50:11.202Z,28.80
2022-08-19T17:52:40.929Z,28.70
2022-08-19T17:55:10.624Z,28.60
2022-08-19T17:57:46.533Z,28.50
2022-08-19T18:00:15.725Z,28.40
2022-08-19T18:02:51.462Z,28.30
2022-08-19T18:05:26.131Z,28.30
2022-08-19T18:07:54.716Z,28.20
2022-08-19T18:10:24.834Z,28.20
2022-08-19T18:13:02.661Z,28.10
2022-08-19T18:15:45.975Z,28.00
2022-08-19T18:18:15.408Z,28.00
2022-08-19T18:20:44.851Z,27.90
2022-08-19T18:23:45.796Z,27.90
2022-08-19T18:26:02.182Z,27.80
2022-08-19T18:28:31.375Z,27.70
2022-08-19T18:30:59.789Z,27.70
2022-08-19T18:33:27.789Z,27.60
2022-08-19T18:35:56.238Z,27.60
2022-08-19T18:38:42.476Z,27.50
2022-08-19T18:41:29.832Z,27.40
2022-08-19T18:44:16.098Z,27.40
2022-08-19T18:47:03.225Z,27.30
2022-08-19T18:49:34.785Z,27.30
2022-08-19T18:52:03.828Z,27.20
2022-08-19T18:54:32.833Z,27.10
2022-08-19T18:57:00.753Z,27.10
2022-08-19T18:59:32.663Z,27.10
2022-08-19T19:02:02.506Z,27.00
2022-08-19T19:04:34.576Z,27.00
2022-08-19T19:07:03.570Z,26.80
2022-08-19T19:09:31.675Z,26.80
2022-08-19T19:12:01.679Z,27.00
2022-08-19T19:14:48.577Z,27.10
2022-08-19T19:17:18.173Z,27.20
2022-08-19T19:19:46.346Z,27.20
2022-08-19T19:22:18.724Z,27.10
2022-08-19T19:24:46.934Z,27.00
2022-08-19T19:27:18.770Z,27.00
2022-08-19T19:29:51.526Z,26.90
2022-08-19T19:32:23.245Z,26.90
2022-08-19T19:34:51.468Z,27.10
2022-08-19T19:37:19.797Z,27.20
2022-08-19T19:39:48.432Z,27.40
2022-08-19T19:42:20.741Z,27.30
2022-08-19T19:44:51.072Z,27.30
2022-08-19T19:47:21.675Z,27.20
2022-08-19T19:52:41.652Z,27.10
2022-08-19T19:55:17.191Z,27.00
2022-08-19T19:57:46.516Z,26.90
2022-08-19T20:00:18.419Z,26.90
2022-08-19T20:02:49.812Z,26.90
2022-08-19T20:05:21.730Z,26.80
2022-08-19T20:08:28.452Z,26.80
2022-08-19T20:11:09.355Z,26.80
2022-08-19T20:13:40.914Z,26.70
2022-08-19T20:16:09.292Z,26.70
2022-08-19T20:18:39.061Z,26.60
2022-08-19T20:21:07.143Z,26.60
2022-08-19T20:23:35.074Z,26.60
2022-08-19T20:26:03.293Z,26.50
2022-08-19T20:28:32.153Z,26.50
2022-08-19T20:31:00.269Z,26.40
2022-08-19T20:33:30.393Z,26.40
2022-08-19T20:35:58.219Z,26.40
2022-08-19T20:38:26.015Z,26.30
2022-08-19T20:40:54.390Z,26.20
2022-08-19T20:43:22.243Z,26.20
2022-08-19T20:45:50.108Z,26.20
2022-08-19T20:48:18.423Z,26.10
2022-08-19T20:50:46.249Z,26.10
2022-08-19T20:53:17.175Z,26.10
2022-08-19T20:55:49.675Z,25.90
2022-08-19T20:58:21.476Z,26.00
2022-08-19T21:00:50.781Z,25.90
2022-08-19T21:03:22.027Z,25.90
2022-08-19T21:05:50.720Z,25.90
2022-08-19T21:08:20.057Z,25.80
2022-08-19T21:10:49.824Z,25.70
2022-08-19T21:13:20.129Z,25.70
2022-08-19T21:15:48.538Z,25.70
2022-08-19T21:18:19.591Z,25.60
2022-08-19T21:20:48.457Z,25.60
2022-08-19T21:23:22.648Z,25.50
2022-08-19T21:25:54.499Z,25.50
2022-08-19T21:28:35.703Z,25.50
2022-08-19T21:31:06.917Z,25.50
2022-08-19T21:33:34.843Z,25.40
2022-08-19T21:36:03.969Z,25.30
2022-08-19T21:38:32.983Z,25.30
2022-08-19T21:41:05.965Z,25.30
2022-08-19T21:43:37.976Z,25.30
2022-08-19T21:46:06.732Z,25.20
2022-08-19T21:48:35.453Z,25.20
2022-08-19T21:51:03.453Z,25.10
2022-08-19T21:53:34.248Z,25.10
2022-08-19T21:56:04.428Z,25.10
2022-08-19T21:58:32.353Z,25.00
2022-08-19T22:01:02.170Z,25.00
2022-08-19T22:03:31.193Z,24.90
2022-08-19T22:05:58.906Z,24.90
2022-08-19T22:08:27.600Z,24.90
2022-08-19T22:10:55.954Z,24.80
2022-08-19T22:13:25.193Z,24.80
2022-08-19T22:15:55.231Z,24.70
2022-08-19T22:18:24.578Z,24.70
2022-08-19T22:20:52.737Z,24.60
2022-08-19T22:23:21.595Z,24.50
2022-08-19T22:25:49.669Z,24.50
2022-08-19T22:28:18.851Z,24.40
2022-08-19T22:30:56.270Z,24.40
2022-08-19T22:33:25.974Z,24.40
2022-08-19T22:35:54.076Z,24.30
2022-08-19T22:38:23.247Z,24.30
2022-08-19T22:40:53.033Z,24.30
2022-08-19T22:43:27.308Z,24.20
2022-08-19T22:45:56.806Z,24.20
2022-08-19T22:48:28.251Z,24.20
2022-08-19T22:51:16.467Z,24.10
2022-08-19T22:53:46.792Z,24.10
2022-08-19T22:56:18.344Z,24.10
2022-08-19T22:58:50.222Z,24.10
2022-08-19T23:01:30.290Z,24.10
2022-08-19T23:04:00.179Z,24.00
2022-08-19T23:06:33.920Z,23.90
2022-08-19T23:09:05.045Z,23.90
2022-08-19T23:11:38.251Z,23.90
2022-08-19T23:14:11.528Z,23.90
2022-08-19T23:16:41.655Z,23.90
2022-08-19T23:19:10.315Z,23.90
2022-08-19T23:21:40.082Z,23.90
2022-08-19T23:24:08.300Z,23.80
2022-08-19T23:26:36.340Z,23.80
2022-08-19T23:29:24.306Z,23.80
2022-08-19T23:31:52.505Z,23.80
2022-08-19T23:34:20.576Z,23.70
2022-08-19T23:36:50.612Z,23.70
2022-08-19T23:39:19.547Z,23.60
2022-08-19T23:41:47.575Z,23.70
2022-08-19T23:44:15.492Z,23.60
2022-08-19T23:46:54.403Z,23.50
2022-08-19T23:49:31.557Z,23.50
2022-08-19T23:52:00.103Z,23.50
2022-08-19T23:54:42.927Z,23.50
2022-08-19T23:57:13.093Z,23.40
2022-08-19T23:59:43.078Z,23.40
